Time;durP1;ratioP1;P1;durP2;ratioP2;P2;SDS_P1;SDS_P2;PMS_P1;PMS_P2;Temp;Humidity;BMP_temperature;BMP_pressure;BME280_temperature;BME280_humidity;BME280_pressure;Samples;Min_cycle;Max_cycle;Signal;HPM_P1;HPM_P2
2022/06/06 00:01:17;;;;;;;8.98;3.28;;;13.00;99.90;;;;;;4987869;28;20375;-56
2022/06/06 00:03:44;;;;;;;6.30;3.08;;;13.00;99.90;;;;;;4988772;28;20113;-56
2022/06/06 00:06:15;;;;;;;9.68;3.20;;;13.00;99.90;;;;;;4992206;28;20052;-56
2022/06/06 00:08:42;;;;;;;6.63;3.08;;;13.00;99.90;;;;;;4989370;28;20402;-57
2022/06/06 00:11:10;;;;;;;4.50;3.20;;;13.00;99.90;;;;;;4989608;28;20041;-56
2022/06/06 00:13:40;;;;;;;6.13;3.10;;;13.00;99.90;;;;;;4989793;28;20064;-55
2022/06/06 00:16:09;;;;;;;5.28;2.50;;;12.90;99.90;;;;;;4993599;28;20543;-56
2022/06/06 00:18:37;;;;;;;5.53;3.13;;;13.00;99.90;;;;;;4995468;28;20187;-57
2022/06/06 00:21:06;;;;;;;9.20;3.03;;;13.00;99.90;;;;;;4991606;28;20731;-56
2022/06/06 00:23:34;;;;;;;3.67;2.67;;;13.00;99.90;;;;;;4994715;28;20550;-55
2022/06/06 00:26:14;;;;;;;4.85;2.95;;;13.00;99.90;;;;;;4989801;28;20115;-56
2022/06/06 00:28:44;;;;;;;8.93;4.03;;;13.00;99.90;;;;;;4973470;28;20053;-58
2022/06/06 00:36:44;;;;;;;4.28;3.05;;;13.00;99.90;;;;;;4990201;28;20582;-56
2022/06/06 00:39:15;;;;;;;6.55;3.42;;;13.00;99.90;;;;;;4988871;28;20045;-56
2022/06/06 00:41:45;;;;;;;7.93;4.30;;;12.90;99.90;;;;;;4989115;28;20359;-55
2022/06/06 00:44:16;;;;;;;13.10;3.80;;;12.90;99.90;;;;;;4986998;28;20045;-56
2022/06/06 00:46:47;;;;;;;8.40;3.80;;;12.90;99.90;;;;;;4989977;28;20443;-56
2022/06/06 00:49:24;;;;;;;4.78;3.50;;;12.80;99.90;;;;;;4986120;28;20225;-56
2022/06/06 00:51:52;;;;;;;5.97;3.40;;;12.80;99.90;;;;;;4971109;28;20037;-57
2022/06/06 00:54:20;;;;;;;3.97;3.58;;;12.80;99.90;;;;;;4986218;28;20418;-56
2022/06/06 00:56:52;;;;;;;4.00;3.30;;;12.70;99.90;;;;;;4989803;28;20068;-56
2022/06/06 00:59:25;;;;;;;9.13;3.38;;;12.70;99.90;;;;;;4972195;28;20053;-56
2022/06/06 01:01:53;;;;;;;3.60;3.15;;;12.70;99.90;;;;;;4990831;28;20476;-56
2022/06/06 01:04:24;;;;;;;10.88;3.10;;;12.70;99.90;;;;;;4986093;28;20471;-56
2022/06/06 01:06:51;;;;;;;4.53;3.22;;;12.70;99.90;;;;;;4969347;28;20574;-54
2022/06/06 01:09:20;;;;;;;4.75;3.30;;;12.70;99.90;;;;;;4988679;28;20202;-56
2022/06/06 01:11:52;;;;;;;3.80;3.20;;;12.60;99.90;;;;;;4989192;28;20049;-56
2022/06/06 01:14:22;;;;;;;4.30;3.03;;;12.60;99.90;;;;;;4970718;28;20661;-55
2022/06/06 01:17:00;;;;;;;5.40;3.50;;;12.60;99.90;;;;;;4987027;28;20293;-56
2022/06/06 01:19:33;;;;;;;3.75;3.45;;;12.60;99.90;;;;;;4989859;28;20059;-56
2022/06/06 01:22:24;;;;;;;6.00;3.60;;;12.50;99.90;;;;;;4988973;28;20059;-55
2022/06/06 01:25:29;;;;;;;5.47;3.00;;;12.50;99.90;;;;;;4990021;28;20743;-56
2022/06/06 01:28:04;;;;;;;8.65;3.63;;;12.50;99.90;;;;;;4981928;28;20335;-57
2022/06/06 01:30:42;;;;;;;12.75;3.70;;;12.50;99.90;;;;;;4971580;28;20064;-56
2022/06/06 01:33:10;;;;;;;;;;;12.50;99.90;;;;;;4990018;28;20806;-56
2022/06/06 01:35:43;;;;;;;7.05;3.92;;;12.50;99.90;;;;;;4989461;28;19925;-56
2022/06/06 01:38:12;;;;;;;11.98;4.50;;;12.50;99.90;;;;;;4985177;28;20250;-55
2022/06/06 01:40:59;;;;;;;7.70;4.13;;;12.40;99.90;;;;;;4985712;28;20049;-56
2022/06/06 01:43:32;;;;;;;8.45;4.20;;;12.40;99.90;;;;;;4987258;28;20136;-55
2022/06/06 01:46:04;;;;;;;7.05;3.50;;;12.40;99.90;;;;;;4987875;28;20182;-55
2022/06/06 01:48:35;;;;;;;9.57;4.68;;;12.30;99.90;;;;;;4988739;28;20071;-56
2022/06/06 01:51:14;;;;;;;10.60;4.22;;;12.30;99.90;;;;;;4988032;28;20654;-54
2022/06/06 01:53:41;;;;;;;6.65;4.22;;;12.30;99.90;;;;;;4987224;28;20049;-55
2022/06/06 01:56:13;;;;;;;5.07;4.55;;;12.20;99.90;;;;;;4987094;28;20628;-55
2022/06/06 01:58:40;;;;;;;6.78;4.45;;;12.20;99.90;;;;;;4986942;28;20101;-56
2022/06/06 02:01:07;;;;;;;5.78;4.45;;;12.20;99.90;;;;;;4987011;28;20455;-55
2022/06/06 02:03:34;;;;;;;8.77;4.47;;;12.20;99.90;;;;;;4988739;28;20048;-56
2022/06/06 02:06:03;;;;;;;6.35;4.38;;;12.20;99.90;;;;;;4986607;28;20368;-55
2022/06/06 02:08:32;;;;;;;8.20;5.45;;;12.10;99.90;;;;;;4968167;28;20547;-56
2022/06/06 02:10:59;;;;;;;8.38;4.70;;;12.10;99.90;;;;;;4988771;28;20724;-56
2022/06/06 02:13:26;;;;;;;6.15;5.20;;;12.10;99.90;;;;;;4988649;28;20474;-54
2022/06/06 02:15:53;;;;;;;5.05;4.15;;;12.10;99.90;;;;;;4988937;28;20388;-55
2022/06/06 02:18:22;;;;;;;6.60;4.65;;;12.10;99.90;;;;;;4968405;28;20235;-56
2022/06/06 02:20:49;;;;;;;5.43;4.18;;;12.00;99.90;;;;;;4989321;28;20305;-55
2022/06/06 02:23:16;;;;;;;5.10;4.20;;;12.00;99.90;;;;;;4988630;28;20743;-56
2022/06/06 02:25:43;;;;;;;6.72;4.13;;;12.00;99.90;;;;;;4988760;28;20195;-50
2022/06/06 02:28:10;;;;;;;10.13;4.63;;;12.00;99.90;;;;;;4983622;28;20654;-50
2022/06/06 02:30:37;;;;;;;;;;;12.00;99.90;;;;;;4970656;28;20661;-48
2022/06/06 02:33:05;;;;;;;11.23;4.70;;;12.00;99.90;;;;;;4988572;28;20002;-51
2022/06/06 02:35:35;;;;;;;7.13;4.05;;;12.00;99.90;;;;;;4988578;28;20857;-48
2022/06/06 02:38:03;;;;;;;4.65;3.95;;;12.00;99.90;;;;;;4987371;28;20234;-49
2022/06/06 02:40:33;;;;;;;9.15;4.03;;;12.00;99.90;;;;;;4988275;28;20471;-48
2022/06/06 02:43:01;;;;;;;6.55;3.90;;;12.00;99.90;;;;;;4987416;28;20538;-50
2022/06/06 02:45:28;;;;;;;5.88;3.92;;;11.90;99.90;;;;;;4988573;28;20510;-51
2022/06/06 02:47:58;;;;;;;5.00;3.88;;;11.90;99.90;;;;;;4987853;28;20403;-50
2022/06/06 02:50:29;;;;;;;11.23;4.72;;;11.90;99.90;;;;;;4986557;28;20396;-52
2022/06/06 02:52:56;;;;;;;7.55;4.20;;;11.90;99.90;;;;;;4972381;28;20272;-52
2022/06/06 02:55:24;;;;;;;4.28;3.72;;;11.90;99.90;;;;;;4971910;28;20114;-51
2022/06/06 02:57:52;;;;;;;7.63;4.70;;;11.90;99.90;;;;;;4991583;28;20130;-52
2022/06/06 03:00:24;;;;;;;10.60;4.30;;;11.90;99.90;;;;;;4991044;28;20037;-50
2022/06/06 03:02:51;;;;;;;11.82;4.50;;;11.90;99.90;;;;;;4989827;28;20666;-50
2022/06/06 03:05:19;;;;;;;8.65;4.75;;;11.80;99.90;;;;;;4989733;28;21068;-51
2022/06/06 03:07:55;;;;;;;5.28;4.40;;;11.80;99.90;;;;;;4988649;28;20582;-50
2022/06/06 03:10:43;;;;;;;6.03;4.25;;;11.80;99.90;;;;;;4993133;28;20044;-50
2022/06/06 03:13:29;;;;;;;11.27;4.80;;;11.80;99.90;;;;;;4988569;28;20348;-50
2022/06/06 03:23:04;;;;;;;6.68;5.05;;;11.70;99.90;;;;;;4990022;28;20593;-49
2022/06/06 03:25:44;;;;;;;6.18;5.18;;;11.60;99.90;;;;;;4948242;28;20767;-49
2022/06/06 03:28:46;;;;;;;10.75;5.90;;;11.60;99.90;;;;;;4980779;28;21004;-50
2022/06/06 03:31:53;;;;;;;8.57;5.15;;;11.60;99.90;;;;;;4964052;28;20119;-52
2022/06/06 03:34:38;;;;;;;7.35;4.78;;;11.60;99.90;;;;;;4987375;28;20112;-50
2022/06/06 03:37:05;;;;;;;6.88;4.93;;;11.60;99.90;;;;;;4968773;28;20830;-53
2022/06/06 03:39:45;;;;;;;7.57;5.38;;;11.70;99.90;;;;;;4971423;28;20045;-52
2022/06/06 03:42:39;;;;;;;5.60;4.70;;;11.70;99.90;;;;;;4983332;28;20980;-51
2022/06/06 03:45:15;;;;;;;7.40;4.55;;;11.70;99.90;;;;;;4985532;28;20468;-53
2022/06/06 03:48:41;;;;;;;10.90;4.65;;;11.70;99.90;;;;;;4989000;28;20197;-51
2022/06/06 03:51:29;;;;;;;8.98;4.78;;;11.70;99.90;;;;;;4910469;28;20054;-49
2022/06/06 03:54:21;;;;;;;5.00;4.30;;;11.80;99.90;;;;;;4982657;28;20155;-52
2022/06/06 03:57:24;;;;;;;4.63;4.10;;;11.80;99.90;;;;;;4986286;28;20041;-51
2022/06/06 03:59:58;;;;;;;5.03;4.00;;;11.80;99.90;;;;;;4954013;28;20582;-52
2022/06/06 04:02:31;;;;;;;4.88;4.43;;;11.80;99.90;;;;;;4971356;28;20053;-51
2022/06/06 04:05:06;;;;;;;6.35;4.68;;;11.80;99.90;;;;;;4987291;28;20052;-51
2022/06/06 04:07:34;;;;;;;5.68;4.63;;;11.90;99.90;;;;;;4988914;28;20751;-51
2022/06/06 04:10:02;;;;;;;5.05;4.20;;;11.90;99.90;;;;;;4986485;28;20033;-50
2022/06/06 04:12:39;;;;;;;6.28;4.63;;;11.90;99.90;;;;;;4992422;28;20093;-51
2022/06/06 04:15:22;;;;;;;6.80;4.63;;;12.00;99.90;;;;;;4989767;28;20052;-55
2022/06/06 04:18:04;;;;;;;8.60;4.28;;;12.00;99.90;;;;;;4988267;28;20045;-47
2022/06/06 04:20:38;;;;;;;16.83;5.70;;;12.00;99.90;;;;;;4992224;28;20116;-47
2022/06/06 04:23:14;;;;;;;11.10;5.40;;;12.10;99.90;;;;;;4986568;28;20077;-47
2022/06/06 04:26:10;;;;;;;6.28;4.53;;;12.20;99.90;;;;;;4987924;28;20080;-48
2022/06/06 04:28:54;;;;;;;5.70;4.13;;;12.20;99.90;;;;;;4990216;28;20033;-49
2022/06/06 04:31:37;;;;;;;5.20;4.22;;;12.20;99.90;;;;;;4979506;28;20526;-48
2022/06/06 04:34:16;;;;;;;5.05;4.55;;;12.30;99.90;;;;;;4967024;28;20064;-48
2022/06/06 04:36:53;;;;;;;8.27;4.63;;;12.40;99.90;;;;;;4971236;28;20265;-49
2022/06/06 04:39:31;;;;;;;;;;;12.50;99.90;;;;;;4970270;28;20144;-47
2022/06/06 04:42:10;;;;;;;6.40;3.88;;;12.50;99.90;;;;;;4998301;28;19921;-49
2022/06/06 04:44:50;;;;;;;11.30;4.72;;;12.60;99.90;;;;;;4984721;28;20119;-50
2022/06/06 04:47:28;;;;;;;6.35;4.00;;;12.60;99.90;;;;;;4991105;28;20052;-48
2022/06/06 04:49:57;;;;;;;6.13;3.50;;;12.60;99.90;;;;;;4989457;28;20246;-50
2022/06/06 04:52:26;;;;;;;8.10;5.65;;;12.70;99.90;;;;;;4990577;28;20674;-53
2022/06/06 04:54:53;;;;;;;5.72;3.95;;;12.70;99.90;;;;;;4986576;28;20199;-51
2022/06/06 04:57:21;;;;;;;6.45;4.70;;;12.70;99.90;;;;;;4988952;28;20037;-52
2022/06/06 04:59:50;;;;;;;5.03;4.32;;;12.80;99.90;;;;;;4989502;28;20829;-52
2022/06/06 05:02:21;;;;;;;4.50;4.10;;;12.80;99.90;;;;;;4988811;28;20183;-51
2022/06/06 05:04:48;;;;;;;4.53;3.80;;;12.90;99.90;;;;;;4990042;28;20457;-52
2022/06/06 05:07:25;;;;;;;5.72;3.92;;;12.90;99.90;;;;;;4987173;28;20084;-54
2022/06/06 05:10:07;;;;;;;4.95;4.18;;;13.00;99.90;;;;;;4992703;28;20044;-52
2022/06/06 05:13:20;;;;;;;6.95;3.65;;;13.10;99.90;;;;;;4992933;28;20044;-52
2022/06/06 05:15:58;;;;;;;4.28;3.67;;;13.20;99.90;;;;;;4994287;28;20067;-52
2022/06/06 05:19:00;;;;;;;4.13;3.78;;;13.40;99.90;;;;;;4973195;28;20072;-52
2022/06/06 05:21:30;;;;;;;5.55;3.92;;;13.50;99.90;;;;;;4975129;28;20053;-53
2022/06/06 05:24:16;;;;;;;8.93;4.63;;;13.60;99.90;;;;;;4992463;28;20592;-53
2022/06/06 05:26:53;;;;;;;7.78;3.40;;;13.70;99.90;;;;;;4995720;28;20044;-52
2022/06/06 05:29:27;;;;;;;4.40;4.00;;;13.80;99.90;;;;;;4993520;28;20301;-52
2022/06/06 05:32:17;;;;;;;6.45;3.88;;;13.90;99.90;;;;;;4981570;28;20187;-51
2022/06/06 05:35:38;;;;;;;4.25;3.20;;;14.00;99.90;;;;;;4984317;28;20815;-52
2022/06/06 05:38:23;;;;;;;4.07;3.40;;;14.10;99.90;;;;;;4986952;28;20863;-52
2022/06/06 05:40:58;;;;;;;3.60;3.30;;;14.20;99.90;;;;;;4990085;28;20044;-52
2022/06/06 05:43:59;;;;;;;6.55;3.78;;;14.30;99.90;;;;;;4988723;28;20814;-52
2022/06/06 05:46:41;;;;;;;4.20;3.28;;;14.40;99.90;;;;;;4989518;28;20048;-52
2022/06/06 05:49:20;;;;;;;4.63;3.67;;;14.40;99.90;;;;;;4990356;28;20040;-53
2022/06/06 05:52:21;;;;;;;5.60;3.33;;;14.50;99.90;;;;;;4992045;28;20648;-53
2022/06/06 05:55:15;;;;;;;3.75;3.15;;;14.50;99.90;;;;;;4989529;28;20781;-50
2022/06/06 05:57:52;;;;;;;12.35;3.75;;;14.60;99.90;;;;;;4987045;28;20037;-51
2022/06/06 06:00:43;;;;;;;4.78;3.10;;;14.60;99.90;;;;;;4992111;28;20037;-54
2022/06/06 06:03:35;;;;;;;5.18;3.10;;;14.60;99.90;;;;;;4991913;28;20051;-52
2022/06/06 06:06:27;;;;;;;3.72;3.22;;;14.70;99.90;;;;;;4992538;28;20566;-53
2022/06/06 06:09:07;;;;;;;4.40;3.10;;;14.80;99.90;;;;;;4989679;28;20045;-53
2022/06/06 06:12:08;;;;;;;4.88;3.85;;;14.90;99.90;;;;;;4993175;28;20044;-53
2022/06/06 06:15:02;;;;;;;3.15;2.90;;;15.00;99.90;;;;;;4989142;28;20930;-53
2022/06/06 06:17:32;;;;;;;6.57;3.55;;;15.10;99.90;;;;;;4992276;28;20037;-55
2022/06/06 06:20:11;;;;;;;6.60;3.47;;;15.20;99.90;;;;;;4992578;28;20771;-48
2022/06/06 06:22:51;;;;;;;5.32;3.80;;;15.30;99.90;;;;;;4984794;28;20676;-53
2022/06/06 06:25:19;;;;;;;4.18;3.78;;;15.30;99.90;;;;;;4989707;28;20120;-53
2022/06/06 06:27:48;;;;;;;5.68;4.22;;;15.40;99.90;;;;;;4989643;28;20064;-52
2022/06/06 06:30:16;;;;;;;9.52;4.30;;;15.50;99.90;;;;;;4989568;28;20676;-52
2022/06/06 06:33:03;;;;;;;5.30;3.75;;;15.60;99.90;;;;;;4986635;28;20131;-52
2022/06/06 06:35:51;;;;;;;10.82;4.68;;;15.80;99.90;;;;;;4984683;28;20198;-52
2022/06/06 06:38:34;;;;;;;6.88;4.22;;;15.90;99.90;;;;;;4985383;28;20566;-53
2022/06/06 06:41:12;;;;;;;10.25;5.40;;;16.10;99.90;;;;;;4989550;28;20375;-53
2022/06/06 06:44:18;;;;;;;7.18;5.43;;;16.30;99.90;;;;;;4989431;28;20041;-53
2022/06/06 06:46:53;;;;;;;9.50;5.47;;;16.50;99.90;;;;;;4991265;28;20209;-53
2022/06/06 06:49:35;;;;;;;10.77;5.35;;;16.80;99.90;;;;;;4991454;28;20041;-53
2022/06/06 06:53:00;;;;;;;9.07;5.40;;;17.00;99.90;;;;;;4992043;28;20051;-55
2022/06/06 06:55:36;;;;;;;8.48;6.28;;;17.10;99.90;;;;;;4967245;28;20235;-56
2022/06/06 06:58:09;;;;;;;7.47;5.27;;;17.20;99.90;;;;;;4969160;28;20145;-55
2022/06/06 07:01:17;;;;;;;12.57;5.72;;;17.20;99.90;;;;;;4978785;28;20773;-53
2022/06/06 07:10:24;;;;;;;7.50;5.35;;;17.20;99.90;;;;;;4988019;28;20945;-54
2022/06/06 07:13:03;;;;;;;6.72;5.60;;;17.30;99.90;;;;;;4992647;28;20648;-54
2022/06/06 07:15:41;;;;;;;9.73;5.72;;;17.30;99.90;;;;;;4989076;28;20205;-54
2022/06/06 07:18:13;;;;;;;9.02;4.03;;;17.30;99.90;;;;;;4990730;28;20063;-54
2022/06/06 07:20:44;;;;;;;7.93;4.68;;;17.30;99.90;;;;;;4988937;28;20100;-56
2022/06/06 07:23:14;;;;;;;6.18;5.20;;;17.40;99.90;;;;;;4970434;28;20275;-57
2022/06/06 07:25:46;;;;;;;10.07;5.35;;;17.40;99.90;;;;;;4991181;28;20047;-56
2022/06/06 07:28:16;;;;;;;8.10;5.68;;;17.50;99.90;;;;;;4990752;28;20119;-53
2022/06/06 07:30:47;;;;;;;16.30;5.25;;;17.50;99.90;;;;;;4973530;28;20068;-53
2022/06/06 07:33:47;;;;;;;11.57;5.75;;;17.50;99.90;;;;;;4989039;28;20041;-53
2022/06/06 07:36:24;;;;;;;6.35;5.18;;;17.50;99.90;;;;;;4970712;28;20145;-57
2022/06/06 07:39:17;;;;;;;11.25;5.78;;;17.50;99.90;;;;;;4982554;28;20191;-58
2022/06/06 07:42:19;;;;;;;8.63;5.07;;;17.50;99.90;;;;;;4973663;28;20558;-60
2022/06/06 07:45:15;;;;;;;11.65;5.65;;;17.50;99.90;;;;;;4985294;28;20037;-54
2022/06/06 07:47:51;;;;;;;9.18;5.35;;;17.60;99.90;;;;;;4990724;28;20202;-54
2022/06/06 07:51:03;;;;;;;13.55;5.60;;;17.70;99.90;;;;;;4988786;28;20048;-56
2022/06/06 07:53:48;;;;;;;9.10;4.65;;;17.80;99.90;;;;;;4984283;28;20094;-55
2022/06/06 07:56:24;;;;;;;10.65;5.32;;;17.80;99.90;;;;;;4988702;28;20351;-53
2022/06/06 07:59:06;;;;;;;5.55;4.90;;;17.90;99.90;;;;;;4991195;28;20256;-54
2022/06/06 08:01:47;;;;;;;13.77;5.32;;;18.00;99.90;;;;;;4988477;28;20045;-55
2022/06/06 08:04:36;;;;;;;8.65;5.07;;;18.10;99.90;;;;;;4987478;28;20055;-54
2022/06/06 08:07:23;;;;;;;7.47;4.53;;;18.20;99.90;;;;;;4985418;28;20371;-54
2022/06/06 08:10:32;;;;;;;10.57;4.95;;;18.20;99.90;;;;;;4986319;28;20462;-57
2022/06/06 08:13:57;;;;;;;6.32;5.68;;;18.30;99.90;;;;;;4987671;28;20041;-56
2022/06/06 08:16:31;;;;;;;6.05;4.63;;;18.50;99.90;;;;;;4988032;28;20199;-56
2022/06/06 08:19:08;;;;;;;6.70;4.68;;;18.60;99.90;;;;;;4989727;28;20048;-54
2022/06/06 08:21:40;;;;;;;;;;;18.80;99.90;;;;;;4986355;28;20049;-55
2022/06/06 08:24:20;;;;;;;9.88;4.18;;;18.90;99.90;;;;;;4985889;28;19921;-55
2022/06/06 08:27:11;;;;;;;7.15;4.00;;;19.00;99.90;;;;;;4987534;28;20317;-56
2022/06/06 08:29:40;;;;;;;4.97;3.75;;;19.10;99.90;;;;;;4990904;28;20040;-56
2022/06/06 08:32:08;;;;;;;7.32;3.78;;;19.20;99.90;;;;;;4988501;28;20068;-54
2022/06/06 08:34:35;;;;;;;8.85;4.75;;;19.30;99.90;;;;;;4984174;28;20041;-55
2022/06/06 08:37:21;;;;;;;8.15;3.90;;;19.50;99.90;;;;;;4967919;28;20052;-57
2022/06/06 08:40:07;;;;;;;4.50;3.45;;;19.80;99.90;;;;;;4968911;28;20068;-57
2022/06/06 08:42:57;;;;;;;9.07;4.10;;;20.10;99.90;;;;;;4989301;28;20166;-57
2022/06/06 08:45:51;;;;;;;8.85;4.50;;;20.40;99.90;;;;;;4969202;28;20049;-57
2022/06/06 08:48:27;;;;;;;6.25;4.03;;;21.00;99.90;;;;;;4973040;28;20061;-54
2022/06/06 08:51:22;;;;;;;4.93;3.75;;;21.30;99.90;;;;;;4969198;28;20535;-53
2022/06/06 08:54:08;;;;;;;12.88;3.95;;;21.50;99.90;;;;;;4974160;28;20041;-54
2022/06/06 08:57:03;;;;;;;6.45;3.58;;;21.50;99.90;;;;;;4985034;28;20778;-55
2022/06/06 08:59:36;;;;;;;6.68;3.08;;;21.60;99.90;;;;;;4974694;28;20049;-52
2022/06/06 09:02:28;;;;;;;6.07;3.70;;;21.80;99.90;;;;;;4968864;28;20790;-52
2022/06/06 09:05:33;;;;;;;7.10;3.47;;;21.80;99.90;;;;;;4970535;28;20551;-54
2022/06/06 09:08:51;;;;;;;8.27;3.40;;;21.70;99.90;;;;;;4971413;28;20040;-54
2022/06/06 09:11:56;;;;;;;7.78;3.50;;;21.90;99.90;;;;;;4947849;28;20659;-53
2022/06/06 09:14:37;;;;;;;4.80;2.80;;;22.10;99.90;;;;;;4993045;28;20037;-55
2022/06/06 09:17:26;;;;;;;6.20;2.55;;;22.30;99.90;;;;;;4991175;28;20138;-56
2022/06/06 09:20:18;;;;;;;11.75;3.55;;;22.30;99.90;;;;;;4992954;28;20202;-53
2022/06/06 09:23:11;;;;;;;5.30;2.60;;;22.50;99.90;;;;;;4989177;28;20291;-54
2022/06/06 09:25:56;;;;;;;4.78;2.42;;;22.60;99.90;;;;;;4980253;28;20045;-56
2022/06/06 09:28:32;;;;;;;3.65;2.42;;;22.60;99.90;;;;;;4989847;28;20048;-55
2022/06/06 09:31:17;;;;;;;4.63;2.00;;;22.70;99.90;;;;;;4987619;28;20152;-56
2022/06/06 09:34:09;;;;;;;3.85;2.38;;;22.70;99.90;;;;;;4990258;28;20134;-55
2022/06/06 09:36:53;;;;;;;4.85;2.42;;;22.80;99.90;;;;;;4988132;28;20037;-55
2022/06/06 09:39:34;;;;;;;7.05;2.67;;;23.00;99.90;;;;;;4951653;28;20637;-53
2022/06/06 09:42:40;;;;;;;8.40;3.10;;;23.00;99.90;;;;;;4983209;28;20332;-53
2022/06/06 09:45:19;;;;;;;5.05;3.10;;;23.10;99.90;;;;;;4981817;28;20652;-53
2022/06/06 09:48:05;;;;;;;9.23;3.08;;;23.30;99.90;;;;;;4970379;28;20617;-54
2022/06/06 09:51:00;;;;;;;6.47;2.35;;;23.40;99.90;;;;;;4966665;28;20048;-55
2022/06/06 09:59:49;;;;;;;4.72;2.80;;;24.00;99.90;;;;;;4974114;28;20770;-55
2022/06/06 10:02:39;;;;;;;11.15;3.03;;;24.10;99.90;;;;;;4969736;28;20041;-55
2022/06/06 10:05:19;;;;;;;19.48;5.93;;;24.00;99.90;;;;;;4971999;28;20238;-55
2022/06/06 10:08:07;;;;;;;5.03;2.95;;;23.80;99.90;;;;;;4968444;28;20041;-55
2022/06/06 10:11:04;;;;;;;3.60;2.90;;;23.60;99.90;;;;;;4973388;28;20048;-56
2022/06/06 10:13:50;;;;;;;4.13;2.40;;;23.40;99.90;;;;;;4959894;28;20815;-55
2022/06/06 10:16:53;;;;;;;4.55;2.65;;;23.20;99.90;;;;;;4974331;28;20598;-57
2022/06/06 10:19:41;;;;;;;5.88;2.50;;;23.20;99.90;;;;;;4987997;28;20037;-55
2022/06/06 10:22:39;;;;;;;3.28;2.30;;;23.30;99.90;;;;;;4989049;28;20585;-56
2022/06/06 10:25:15;;;;;;;4.00;2.45;;;23.30;99.90;;;;;;4989547;28;20258;-56
2022/06/06 10:27:43;;;;;;;6.10;2.95;;;23.40;99.90;;;;;;4993455;28;20150;-55
2022/06/06 10:30:34;;;;;;;3.13;2.20;;;23.40;99.90;;;;;;4990210;28;20278;-55
2022/06/06 10:33:16;;;;;;;3.80;2.55;;;23.20;99.90;;;;;;4970618;28;20073;-55
2022/06/06 10:36:12;;;;;;;5.63;2.50;;;23.10;99.90;;;;;;4967900;28;20318;-55
2022/06/06 10:38:56;;;;;;;5.28;2.45;;;23.20;99.90;;;;;;4971351;28;20059;-52
2022/06/06 10:41:32;;;;;;;4.35;2.60;;;23.40;99.90;;;;;;4986181;28;20043;-53
2022/06/06 10:44:24;;;;;;;6.50;2.93;;;23.40;99.90;;;;;;4982682;28;20998;-53
2022/06/06 10:47:20;;;;;;;3.67;2.60;;;23.40;99.90;;;;;;4989237;28;20052;-53
2022/06/06 10:50:07;;;;;;;7.45;3.03;;;23.30;99.90;;;;;;4991140;28;20147;-52
2022/06/06 10:53:00;;;;;;;11.43;3.80;;;23.10;99.90;;;;;;4982573;28;20040;-54
2022/06/06 10:55:57;;;;;;;3.92;3.17;;;23.00;99.90;;;;;;4990556;28;20053;-54
2022/06/06 10:59:01;;;;;;;5.15;2.90;;;23.00;99.90;;;;;;4985445;28;20279;-54
2022/06/06 11:01:55;;;;;;;3.17;2.78;;;22.80;99.90;;;;;;4987934;28;20094;-64
2022/06/06 11:04:43;;;;;;;6.78;3.03;;;22.70;99.90;;;;;;4986811;28;20154;-64
2022/06/06 11:07:29;;;;;;;5.40;2.80;;;22.50;99.90;;;;;;4981996;28;20542;-55
2022/06/06 11:10:08;;;;;;;5.18;3.65;;;22.30;99.90;;;;;;4987417;28;20569;-56
2022/06/06 11:13:23;;;;;;;5.53;2.80;;;22.20;99.90;;;;;;4990303;28;20104;-54
2022/06/06 11:16:24;;;;;;;4.43;2.80;;;22.10;99.90;;;;;;4962684;28;20045;-56
2022/06/06 11:19:08;;;;;;;9.82;3.10;;;22.10;99.90;;;;;;4945977;28;20052;-56
2022/06/06 11:21:53;;;;;;;5.78;2.85;;;22.10;99.90;;;;;;4975849;28;20854;-55
2022/06/06 11:24:40;;;;;;;4.07;2.90;;;22.00;99.90;;;;;;4967018;28;20389;-55
2022/06/06 11:27:32;;;;;;;5.07;3.00;;;22.10;99.90;;;;;;4966188;28;20056;-56
2022/06/06 11:30:20;;;;;;;10.63;3.22;;;22.10;99.90;;;;;;4964612;28;20164;-56
2022/06/06 11:33:15;;;;;;;6.88;3.38;;;22.30;99.90;;;;;;4967183;28;20131;-56
2022/06/06 11:36:13;;;;;;;10.77;3.15;;;22.40;99.90;;;;;;4969316;28;20080;-56
2022/06/06 11:39:17;;;;;;;3.45;2.42;;;22.50;99.90;;;;;;4972237;28;20226;-56
2022/06/06 11:41:54;;;;;;;10.25;2.97;;;22.60;99.90;;;;;;4978210;28;20600;-56
2022/06/06 11:44:40;;;;;;;4.07;2.65;;;22.80;99.90;;;;;;4987337;28;20045;-55
2022/06/06 11:47:44;;;;;;;6.53;3.30;;;22.90;99.90;;;;;;4986533;28;20100;-56
2022/06/06 11:50:45;;;;;;;6.95;3.08;;;23.00;99.90;;;;;;4989452;28;20044;-55
2022/06/06 11:53:41;;;;;;;3.80;2.80;;;23.00;99.90;;;;;;4985494;28;20623;-56
2022/06/06 11:56:17;;;;;;;6.85;3.25;;;23.10;99.90;;;;;;4990010;28;20052;-55
2022/06/06 11:59:16;;;;;;;3.90;3.08;;;23.10;99.90;;;;;;4989125;28;20041;-56
2022/06/06 12:02:15;;;;;;;6.78;2.75;;;22.90;99.90;;;;;;4984451;28;20064;-54
2022/06/06 12:05:14;;;;;;;4.35;2.63;;;22.70;99.90;;;;;;4987854;28;20052;-53
2022/06/06 12:08:12;;;;;;;4.05;2.75;;;22.60;99.90;;;;;;4991087;28;20337;-54
2022/06/06 12:11:10;;;;;;;4.63;2.53;;;22.70;99.90;;;;;;4984000;28;20041;-52
2022/06/06 12:14:03;;;;;;;5.28;2.95;;;22.70;99.90;;;;;;4987914;28;20600;-52
2022/06/06 12:16:43;;;;;;;13.25;2.97;;;22.80;99.90;;;;;;4967159;28;20841;-53
2022/06/06 12:19:22;;;;;;;5.50;3.55;;;23.00;99.90;;;;;;4989419;28;20056;-53
2022/06/06 12:22:13;;;;;;;3.97;2.80;;;23.10;99.90;;;;;;4986149;28;20187;-54
2022/06/06 12:24:55;;;;;;;5.45;2.50;;;23.10;99.90;;;;;;4989435;28;20056;-53
2022/06/06 12:27:34;;;;;;;8.05;2.38;;;23.20;99.90;;;;;;4986860;28;20049;-53
2022/06/06 12:30:21;;;;;;;4.20;3.30;;;23.20;99.90;;;;;;4986181;28;20226;-53
2022/06/06 12:33:02;;;;;;;6.38;3.05;;;23.20;99.90;;;;;;4967642;28;20049;-53
2022/06/06 12:35:38;;;;;;;4.97;3.42;;;23.10;99.90;;;;;;4963917;28;20202;-53
2022/06/06 12:38:23;;;;;;;3.80;2.53;;;23.00;99.90;;;;;;4973113;28;20048;-53
2022/06/06 12:40:57;;;;;;;3.63;2.63;;;22.90;99.90;;;;;;4973593;28;20060;-52
2022/06/06 12:43:43;;;;;;;3.72;2.40;;;22.80;99.90;;;;;;4983144;28;20041;-55
2022/06/06 12:46:32;;;;;;;3.30;2.50;;;22.70;99.90;;;;;;4988342;28;20045;-56
2022/06/06 12:49:22;;;;;;;6.60;2.78;;;22.70;99.90;;;;;;4987111;28;20447;-55
2022/06/06 12:52:14;;;;;;;7.20;2.80;;;22.70;99.90;;;;;;4986374;28;20344;-57
2022/06/06 12:55:33;;;;;;;5.68;2.40;;;22.80;99.90;;;;;;4988376;28;20048;-55
2022/06/06 12:58:08;;;;;;;5.38;3.65;;;22.80;99.90;;;;;;4985216;28;20342;-63
2022/06/06 13:04:06;;;;;;;7.05;2.53;;;22.90;99.90;;;;;;4945198;28;20061;-55
2022/06/06 13:06:54;;;;;;;5.53;2.92;;;22.90;99.90;;;;;;4984394;28;20285;-57
2022/06/06 13:09:54;;;;;;;4.70;2.92;;;22.90;99.90;;;;;;4985029;28;20048;-55
2022/06/06 13:12:21;;;;;;;6.90;4.35;;;23.00;99.90;;;;;;4986163;28;20205;-55
2022/06/06 13:14:57;;;;;;;4.50;2.50;;;23.10;99.90;;;;;;4987933;28;20049;-56
2022/06/06 13:17:48;;;;;;;5.80;3.42;;;23.30;99.90;;;;;;4985439;28;20221;-56
2022/06/06 13:20:15;;;;;;;4.80;2.63;;;23.50;99.90;;;;;;4990373;28;20056;-55
2022/06/06 13:22:49;;;;;;;4.47;2.75;;;23.80;99.90;;;;;;4986114;28;20049;-54
2022/06/06 13:25:33;;;;;;;4.90;3.15;;;23.90;99.90;;;;;;4991809;28;20609;-55
2022/06/06 13:28:11;;;;;;;3.13;2.70;;;23.90;99.90;;;;;;4990832;28;20458;-55
2022/06/06 13:31:06;;;;;;;7.85;2.95;;;23.90;99.90;;;;;;4991285;28;20156;-56
2022/06/06 13:33:55;;;;;;;4.03;2.78;;;24.00;99.90;;;;;;4991609;28;20272;-56
2022/06/06 13:36:50;;;;;;;5.47;2.75;;;24.00;99.90;;;;;;4992022;28;20148;-55
2022/06/06 13:39:26;;;;;;;3.58;2.67;;;24.10;99.90;;;;;;4988031;28;20605;-56
2022/06/06 13:42:19;;;;;;;4.47;2.85;;;24.20;99.90;;;;;;4982500;28;20137;-56
2022/06/06 13:45:24;;;;;;;3.15;2.72;;;24.20;99.90;;;;;;4983283;28;20593;-56
2022/06/06 13:47:59;;;;;;;5.45;3.05;;;24.20;99.90;;;;;;4992649;28;20106;-56
2022/06/06 13:50:29;;;;;;;2.60;2.40;;;24.00;99.90;;;;;;4988351;28;20048;-56
2022/06/06 13:53:10;;;;;;;7.13;3.28;;;23.90;99.90;;;;;;4992139;28;20037;-56
2022/06/06 13:55:39;;;;;;;5.60;3.08;;;24.00;99.90;;;;;;4991101;28;20576;-56
2022/06/06 13:58:48;;;;;;;4.97;2.80;;;24.10;99.90;;;;;;4990433;28;20052;-56
2022/06/06 14:01:15;;;;;;;;;;;24.30;99.90;;;;;;4991451;28;20211;-54
2022/06/06 14:03:52;;;;;;;3.47;3.05;;;24.50;99.90;;;;;;4990696;28;19944;-54
2022/06/06 14:06:31;;;;;;;3.85;2.22;;;24.70;99.90;;;;;;4990594;28;20459;-53
2022/06/06 14:08:59;;;;;;;3.70;2.63;;;24.90;99.90;;;;;;4988803;28;20053;-53
2022/06/06 14:11:44;;;;;;;2.60;2.40;;;25.00;99.90;;;;;;4989407;28;20041;-54
2022/06/06 14:14:16;;;;;;;6.70;2.80;;;25.10;99.90;;;;;;4990987;28;20144;-54
2022/06/06 14:17:06;;;;;;;6.07;2.65;;;25.10;99.60;;;;;;4991122;28;20049;-54
2022/06/06 14:19:58;;;;;;;5.63;2.85;;;25.10;97.30;;;;;;4982407;28;20813;-56
2022/06/06 14:22:32;;;;;;;5.70;2.85;;;24.90;98.50;;;;;;4988925;28;21127;-54
2022/06/06 14:25:01;;;;;;;4.38;2.80;;;24.60;99.90;;;;;;4989070;28;20218;-54
2022/06/06 14:27:31;;;;;;;4.40;2.97;;;24.40;99.90;;;;;;4987256;28;20052;-54
2022/06/06 14:30:02;;;;;;;4.78;2.22;;;24.30;99.90;;;;;;4988259;28;20663;-53
2022/06/06 14:32:55;;;;;;;3.88;2.90;;;24.20;99.90;;;;;;4989000;28;20033;-56